createdAt,value
2019-01-17T00:00:42.144Z,4.90
2019-01-17T00:03:20.299Z,5.37
2019-01-17T00:06:05.647Z,4.77
2019-01-17T00:08:55.510Z,4.60
2019-01-17T00:11:38.189Z,5.20
2019-01-17T00:14:19.678Z,5.63
2019-01-17T00:17:13.458Z,5.00
2019-01-17T00:20:15.777Z,5.30
2019-01-17T00:23:08.376Z,4.43
2019-01-17T00:25:53.572Z,4.27
2019-01-17T00:28:39.204Z,4.83
2019-01-17T00:31:31.163Z,4.60
2019-01-17T00:34:16.490Z,4.60
2019-01-17T00:37:03.276Z,4.03
2019-01-17T00:39:45.698Z,4.10
2019-01-17T00:42:30.898Z,4.37
2019-01-17T00:45:26.886Z,5.90
2019-01-17T00:48:12.029Z,10.17
2019-01-17T00:51:04.480Z,8.17
2019-01-17T00:53:49.448Z,5.70
2019-01-17T00:56:54.442Z,7.73
2019-01-17T00:59:39.663Z,10.87
2019-01-17T01:02:26.492Z,9.90
2019-01-17T01:05:12.062Z,8.47
2019-01-17T01:07:57.631Z,6.43
2019-01-17T01:10:42.870Z,6.67
2019-01-17T01:13:27.866Z,5.20
2019-01-17T01:16:23.417Z,5.10
2019-01-17T01:19:02.155Z,4.20
2019-01-17T01:21:42.323Z,4.67
2019-01-17T01:24:32.192Z,4.73
2019-01-17T01:27:14.394Z,4.40
2019-01-17T01:30:06.947Z,4.00
2019-01-17T01:32:53.734Z,4.70
2019-01-17T01:35:43.305Z,3.63
2019-01-17T01:38:30.380Z,3.70
2019-01-17T01:41:17.168Z,3.77
2019-01-17T01:43:57.254Z,3.37
2019-01-17T01:46:44.341Z,4.00
2019-01-17T01:49:39.866Z,3.60
2019-01-17T01:52:35.944Z,4.20
2019-01-17T01:55:03.879Z,4.00
2019-01-17T01:57:30.979Z,3.43
2019-01-17T01:59:58.175Z,3.30
2019-01-17T02:02:25.277Z,4.20
2019-01-17T02:04:52.447Z,3.23
2019-01-17T02:07:19.658Z,3.47
2019-01-17T02:09:46.798Z,4.50
2019-01-17T02:12:13.994Z,3.80
2019-01-17T02:14:41.198Z,4.10
2019-01-17T02:17:08.730Z,4.13
2019-01-17T02:19:35.905Z,4.13
2019-01-17T02:22:03.116Z,4.63
2019-01-17T02:24:30.568Z,3.97
2019-01-17T02:26:57.768Z,3.97
2019-01-17T02:29:25.277Z,4.43
2019-01-17T02:31:52.410Z,4.60
2019-01-17T02:34:19.568Z,3.80
2019-01-17T02:36:47.076Z,4.70
2019-01-17T02:39:14.418Z,4.00
2019-01-17T02:41:41.573Z,4.80
2019-01-17T02:44:08.686Z,3.80
2019-01-17T02:46:35.848Z,4.53
2019-01-17T02:49:03.003Z,3.77
2019-01-17T02:51:30.199Z,3.90
2019-01-17T02:53:57.389Z,3.93
2019-01-17T02:56:24.578Z,3.83
2019-01-17T02:58:51.777Z,5.13
2019-01-17T03:01:18.974Z,4.43
2019-01-17T03:03:46.132Z,4.73
2019-01-17T03:06:13.392Z,3.60
2019-01-17T03:08:40.539Z,3.23
2019-01-17T03:11:07.743Z,4.40
2019-01-17T03:13:34.915Z,4.40
2019-01-17T03:16:02.155Z,3.73
2019-01-17T03:18:29.520Z,3.57
2019-01-17T03:20:56.718Z,3.67
2019-01-17T03:23:23.864Z,3.70
2019-01-17T03:25:50.958Z,3.77
2019-01-17T03:28:18.138Z,3.40
2019-01-17T03:30:45.326Z,3.63
2019-01-17T03:33:12.511Z,3.50
2019-01-17T03:35:39.605Z,2.83
2019-01-17T03:38:06.804Z,3.23
2019-01-17T03:40:33.969Z,3.03
2019-01-17T03:43:01.216Z,3.80
2019-01-17T03:45:28.371Z,3.17
2019-01-17T03:47:55.452Z,2.80
2019-01-17T03:50:22.650Z,3.37
2019-01-17T03:52:49.804Z,3.30
2019-01-17T03:55:19.465Z,2.90
2019-01-17T03:57:46.679Z,3.30
2019-01-17T04:00:16.721Z,2.97
2019-01-17T04:02:44.175Z,3.53
2019-01-17T04:05:11.486Z,2.50
2019-01-17T04:07:38.551Z,2.80
2019-01-17T04:10:07.290Z,3.00
2019-01-17T04:12:34.396Z,2.90
2019-01-17T04:15:01.580Z,3.50
2019-01-17T04:17:28.862Z,2.97
2019-01-17T04:19:56.073Z,2.63
2019-01-17T04:22:23.239Z,4.20
2019-01-17T04:24:57.107Z,2.93
2019-01-17T04:27:19.631Z,2.50
2019-01-17T04:29:46.803Z,2.27
2019-01-17T04:32:14.020Z,3.03
2019-01-17T04:34:41.243Z,2.67
2019-01-17T04:37:08.444Z,2.70
2019-01-17T04:39:35.612Z,2.53
2019-01-17T04:42:02.830Z,2.80
2019-01-17T04:44:30.326Z,2.70
2019-01-17T04:46:57.534Z,2.30
2019-01-17T04:49:26.557Z,3.00
2019-01-17T04:51:53.754Z,3.80
2019-01-17T04:54:20.831Z,2.63
2019-01-17T04:56:47.976Z,2.50
2019-01-17T04:59:15.145Z,2.30
2019-01-17T05:01:42.331Z,2.67
2019-01-17T05:04:09.832Z,2.40
2019-01-17T05:06:36.990Z,2.20
2019-01-17T05:09:06.408Z,2.50
2019-01-17T05:11:33.628Z,2.40
2019-01-17T05:14:00.815Z,2.10
2019-01-17T05:16:27.992Z,2.37
2019-01-17T05:18:55.187Z,2.27
2019-01-17T05:21:22.348Z,2.30
2019-01-17T05:23:49.549Z,2.50
2019-01-17T05:26:16.762Z,2.47
2019-01-17T05:28:43.984Z,2.30
2019-01-17T05:31:11.379Z,2.20
2019-01-17T05:33:38.878Z,2.47
2019-01-17T05:36:06.036Z,2.20
2019-01-17T05:38:33.219Z,2.47
2019-01-17T05:41:00.590Z,2.50
2019-01-17T05:43:27.753Z,3.27
2019-01-17T05:45:54.923Z,2.50
2019-01-17T05:48:22.125Z,3.20
2019-01-17T05:50:49.170Z,3.20
2019-01-17T05:53:16.324Z,3.10
2019-01-17T05:55:43.547Z,2.77
2019-01-17T05:58:10.714Z,3.20
2019-01-17T06:00:37.895Z,3.30
2019-01-17T06:03:05.085Z,2.93
2019-01-17T06:05:32.134Z,3.00
2019-01-17T06:07:59.338Z,3.30
2019-01-17T06:10:26.527Z,3.40
2019-01-17T06:12:54.211Z,2.90
2019-01-17T06:15:22.859Z,2.93
2019-01-17T06:17:50.111Z,3.30
2019-01-17T06:20:17.399Z,3.50
2019-01-17T06:22:44.600Z,3.60
2019-01-17T06:25:12.060Z,3.60
2019-01-17T06:27:39.236Z,3.40
2019-01-17T06:30:08.530Z,4.23
2019-01-17T06:32:35.764Z,3.67
2019-01-17T06:35:04.263Z,3.80
2019-01-17T06:37:31.472Z,3.83
2019-01-17T06:39:58.667Z,3.30
2019-01-17T06:42:25.873Z,3.47
2019-01-17T06:44:53.060Z,4.00
2019-01-17T06:47:20.258Z,3.80
2019-01-17T06:49:47.408Z,3.90
2019-01-17T06:52:14.566Z,4.20
2019-01-17T06:54:41.670Z,4.40
2019-01-17T06:57:08.985Z,4.27
2019-01-17T06:59:36.162Z,4.20
2019-01-17T07:02:03.464Z,4.03
2019-01-17T07:04:30.908Z,3.90
2019-01-17T07:06:58.071Z,3.70
2019-01-17T07:09:25.306Z,3.93
2019-01-17T07:11:52.728Z,3.70
2019-01-17T07:14:19.909Z,3.70
2019-01-17T07:16:47.128Z,3.67
2019-01-17T07:19:14.304Z,3.40
2019-01-17T07:21:41.504Z,3.30
2019-01-17T07:24:08.781Z,3.10
2019-01-17T07:26:35.956Z,2.53
2019-01-17T07:29:03.376Z,2.80
2019-01-17T07:31:30.563Z,2.70
2019-01-17T07:33:57.741Z,2.70
2019-01-17T07:36:24.945Z,3.23
2019-01-17T07:38:52.133Z,3.10
2019-01-17T07:41:19.525Z,3.00
2019-01-17T07:43:46.733Z,2.90
2019-01-17T07:46:14.233Z,2.43
2019-01-17T07:48:41.461Z,2.87
2019-01-17T07:51:08.584Z,3.30
2019-01-17T07:53:35.802Z,3.57
2019-01-17T07:56:03.500Z,3.60
2019-01-17T07:58:30.698Z,2.77
2019-01-17T08:00:57.898Z,3.10
2019-01-17T08:03:25.071Z,3.00
2019-01-17T08:05:52.222Z,2.30
2019-01-17T08:08:19.417Z,3.23
2019-01-17T08:10:46.585Z,2.50
2019-01-17T08:13:14.080Z,3.33
2019-01-17T08:15:41.307Z,2.80
2019-01-17T08:18:08.408Z,11.83
2019-01-17T08:20:35.777Z,6.67
2019-01-17T08:23:02.972Z,7.00
2019-01-17T08:25:30.130Z,3.80
2019-01-17T08:27:57.319Z,3.30
2019-01-17T08:30:26.374Z,2.93
2019-01-17T08:32:53.556Z,3.10
2019-01-17T08:35:20.867Z,3.70
2019-01-17T08:37:48.066Z,3.17
2019-01-17T08:40:20.395Z,3.50
2019-01-17T08:42:46.981Z,2.90
2019-01-17T08:45:14.290Z,11.40
2019-01-17T08:47:41.637Z,5.70
2019-01-17T08:50:10.024Z,4.30
2019-01-17T08:52:37.508Z,3.67
2019-01-17T08:55:04.872Z,4.00
2019-01-17T08:57:32.033Z,4.10
2019-01-17T08:59:59.166Z,3.87
2019-01-17T09:02:26.354Z,4.20
2019-01-17T09:04:53.728Z,3.63
2019-01-17T09:07:20.949Z,3.60
2019-01-17T09:09:48.125Z,3.60
2019-01-17T09:12:15.316Z,3.40
2019-01-17T09:14:42.520Z,3.17
2019-01-17T09:17:09.709Z,3.47
2019-01-17T09:19:36.871Z,3.60
2019-01-17T09:22:04.084Z,3.50
2019-01-17T09:24:31.520Z,3.00
2019-01-17T09:26:58.736Z,3.10
2019-01-17T09:29:25.952Z,2.40
2019-01-17T09:31:53.150Z,2.70
2019-01-17T09:34:20.323Z,3.00
2019-01-17T09:36:47.536Z,2.77
2019-01-17T09:39:14.707Z,3.13
2019-01-17T09:41:41.803Z,3.00
2019-01-17T09:44:08.989Z,3.60
2019-01-17T09:46:36.081Z,2.97
2019-01-17T09:49:03.456Z,2.90
2019-01-17T09:51:30.681Z,3.33
2019-01-17T09:53:57.796Z,2.37
2019-01-17T09:56:24.997Z,2.33
2019-01-17T09:58:54.290Z,2.47
2019-01-17T10:01:21.503Z,2.50
2019-01-17T10:03:48.772Z,2.60
2019-01-17T10:06:15.960Z,2.33
2019-01-17T10:08:43.121Z,2.23
2019-01-17T10:11:10.325Z,1.97
2019-01-17T10:13:37.513Z,2.80
2019-01-17T10:16:36.022Z,2.33
2019-01-17T10:19:45.252Z,2.10
2019-01-17T10:22:33.901Z,2.10
2019-01-17T10:25:24.355Z,2.30
2019-01-17T10:28:45.661Z,2.50
2019-01-17T10:32:06.924Z,2.67
2019-01-17T10:35:06.938Z,2.30
2019-01-17T10:38:04.438Z,2.17
2019-01-17T10:41:13.694Z,2.00
2019-01-17T10:44:30.318Z,1.57
2019-01-17T10:47:33.766Z,1.50
2019-01-17T10:50:12.113Z,1.90
2019-01-17T10:53:21.729Z,1.60
2019-01-17T10:56:45.727Z,1.40
2019-01-17T10:59:27.195Z,2.00
2019-01-17T11:02:42.088Z,1.63
2019-01-17T11:05:50.232Z,1.30
2019-01-17T11:08:44.962Z,1.27
2019-01-17T11:11:37.900Z,1.57
2019-01-17T11:14:22.335Z,1.20
2019-01-17T11:17:14.969Z,1.17
2019-01-17T11:20:18.224Z,1.27
2019-01-17T11:23:22.795Z,1.30
2019-01-17T11:26:01.974Z,1.33
2019-01-17T11:28:47.628Z,1.00
2019-01-17T11:32:02.256Z,1.20
2019-01-17T11:35:16.175Z,1.20
2019-01-17T11:38:27.074Z,0.90
2019-01-17T11:41:35.427Z,1.30
2019-01-17T11:44:43.128Z,0.93
2019-01-17T11:47:24.772Z,1.53
2019-01-17T11:50:29.663Z,1.03
2019-01-17T11:53:53.934Z,0.90
2019-01-17T11:56:53.164Z,1.30
2019-01-17T11:59:34.665Z,1.20
2019-01-17T12:02:39.086Z,1.00
2019-01-17T12:05:02.892Z,1.30
2019-01-17T12:07:30.000Z,0.97
2019-01-17T12:09:57.350Z,0.87
2019-01-17T12:12:25.128Z,1.00
2019-01-17T12:14:54.707Z,1.10
2019-01-17T12:17:22.214Z,1.00
2019-01-17T12:19:49.391Z,1.70
2019-01-17T12:22:16.624Z,1.00
2019-01-17T12:24:43.809Z,0.97
2019-01-17T12:27:11.030Z,1.20
2019-01-17T12:29:38.241Z,1.40
2019-01-17T12:32:05.468Z,1.03
2019-01-17T12:34:32.642Z,0.93
2019-01-17T12:36:59.843Z,1.10
2019-01-17T12:39:27.044Z,1.47
2019-01-17T12:41:54.261Z,1.10
2019-01-17T12:44:21.327Z,1.00
2019-01-17T12:46:48.568Z,1.20
2019-01-17T12:49:15.645Z,1.13
2019-01-17T12:51:42.847Z,1.00
2019-01-17T12:54:09.959Z,1.10
2019-01-17T12:56:37.449Z,1.20
2019-01-17T12:59:04.661Z,1.00
2019-01-17T13:01:32.172Z,1.00
2019-01-17T13:03:59.353Z,1.27
2019-01-17T13:06:26.577Z,1.07
2019-01-17T13:08:53.815Z,1.57
2019-01-17T13:11:20.979Z,1.40
2019-01-17T13:13:49.073Z,0.97
2019-01-17T13:16:16.278Z,1.10
2019-01-17T13:18:43.429Z,1.23
2019-01-17T13:21:10.822Z,1.00
2019-01-17T13:23:38.137Z,1.10
2019-01-17T13:26:05.245Z,1.43
2019-01-17T13:28:32.431Z,1.10
2019-01-17T13:30:59.555Z,1.10
2019-01-17T13:33:26.720Z,1.00
2019-01-17T13:35:53.818Z,1.00
2019-01-17T13:38:21.036Z,1.20
2019-01-17T13:40:48.546Z,0.90
2019-01-17T13:43:15.716Z,1.33
2019-01-17T13:45:42.950Z,0.90
2019-01-17T13:48:10.114Z,1.23
2019-01-17T13:50:37.213Z,1.40
2019-01-17T13:53:04.519Z,1.30
2019-01-17T13:55:31.915Z,1.60
2019-01-17T13:57:59.132Z,1.10
2019-01-17T14:00:26.978Z,1.27
2019-01-17T14:02:54.084Z,0.90
2019-01-17T14:05:21.283Z,1.50
2019-01-17T14:07:48.903Z,1.20
2019-01-17T14:10:16.088Z,1.20
2019-01-17T14:12:43.188Z,1.17
2019-01-17T14:15:19.215Z,1.23
2019-01-17T14:17:46.316Z,1.00
2019-01-17T14:20:13.616Z,1.50
2019-01-17T14:22:40.880Z,1.10
2019-01-17T14:25:08.219Z,1.50
2019-01-17T14:27:35.412Z,1.80
2019-01-17T14:30:04.159Z,1.10
2019-01-17T14:32:31.371Z,1.37
2019-01-17T14:34:58.909Z,1.10
2019-01-17T14:37:26.191Z,1.03
2019-01-17T14:39:53.391Z,1.00
2019-01-17T14:42:20.585Z,1.60
2019-01-17T14:44:47.855Z,1.43
2019-01-17T14:47:15.052Z,1.30
2019-01-17T14:49:42.223Z,1.50
2019-01-17T14:52:09.420Z,1.53
2019-01-17T14:54:36.533Z,1.50
2019-01-17T14:57:03.946Z,1.70
2019-01-17T14:59:31.370Z,1.40
2019-01-17T15:01:58.548Z,1.20
2019-01-17T15:04:25.750Z,1.40
2019-01-17T15:06:53.058Z,1.30
2019-01-17T15:09:20.560Z,0.87
2019-01-17T15:11:47.766Z,0.80
2019-01-17T15:14:14.974Z,0.80
2019-01-17T15:16:42.184Z,0.80
2019-01-17T15:19:27.911Z,0.80
2019-01-17T15:22:13.542Z,0.80
2019-01-17T15:24:58.950Z,1.10
2019-01-17T15:27:44.399Z,0.70
2019-01-17T15:30:14.676Z,0.83
2019-01-17T15:32:41.887Z,1.00
2019-01-17T15:35:09.105Z,0.93
2019-01-17T15:37:36.379Z,1.00
2019-01-17T15:40:06.131Z,0.87
2019-01-17T15:42:33.299Z,1.13
2019-01-17T15:45:00.853Z,1.00
2019-01-17T15:47:28.033Z,1.20
2019-01-17T15:49:55.213Z,1.00
2019-01-17T15:52:22.462Z,0.90
2019-01-17T15:54:49.623Z,1.10
2019-01-17T15:57:17.005Z,1.00
2019-01-17T15:59:44.551Z,1.20
2019-01-17T16:02:11.977Z,1.00
2019-01-17T16:04:39.179Z,1.20
2019-01-17T16:07:07.490Z,1.10
2019-01-17T16:09:34.723Z,1.27
2019-01-17T16:12:01.939Z,1.10
2019-01-17T16:14:29.180Z,1.63
2019-01-17T16:16:56.348Z,1.30
2019-01-17T16:19:23.568Z,1.37
2019-01-17T16:21:50.745Z,1.70
2019-01-17T16:24:17.847Z,1.37
2019-01-17T16:26:45.008Z,1.37
2019-01-17T16:29:12.250Z,1.30
2019-01-17T16:31:39.440Z,1.20
2019-01-17T16:34:06.622Z,1.63
2019-01-17T16:36:33.824Z,2.00
2019-01-17T16:39:00.988Z,1.60
2019-01-17T16:41:28.204Z,1.47
2019-01-17T16:43:55.340Z,1.60
2019-01-17T16:46:22.838Z,2.00
2019-01-17T16:48:50.044Z,1.50
2019-01-17T16:51:17.279Z,1.60
2019-01-17T16:53:44.499Z,1.60
2019-01-17T16:56:12.000Z,1.53
2019-01-17T16:58:39.186Z,1.50
2019-01-17T17:01:06.385Z,1.20
2019-01-17T17:03:33.562Z,1.10
2019-01-17T17:06:00.692Z,0.93
2019-01-17T17:08:27.994Z,1.20
2019-01-17T17:10:55.205Z,1.10
2019-01-17T17:13:22.552Z,1.10
2019-01-17T17:15:49.733Z,0.90
2019-01-17T17:18:16.936Z,0.80
2019-01-17T17:20:44.076Z,0.93
2019-01-17T17:23:11.289Z,0.83
2019-01-17T17:25:38.691Z,1.10
2019-01-17T17:28:05.917Z,0.83
2019-01-17T17:30:33.095Z,0.90
2019-01-17T17:33:00.268Z,1.20
2019-01-17T17:35:27.488Z,1.20
2019-01-17T17:37:54.993Z,1.20
2019-01-17T17:40:24.452Z,1.20
2019-01-17T17:42:51.677Z,1.17
2019-01-17T17:45:19.419Z,1.20
2019-01-17T17:47:46.509Z,1.67
2019-01-17T17:50:14.477Z,1.43
2019-01-17T17:52:41.649Z,1.23
2019-01-17T17:55:10.198Z,1.80
2019-01-17T17:57:37.477Z,1.90
2019-01-17T18:00:08.671Z,2.13
2019-01-17T18:02:37.741Z,1.90
2019-01-17T18:05:08.190Z,1.77
2019-01-17T18:07:35.277Z,1.90
2019-01-17T18:10:03.334Z,1.70
2019-01-17T18:12:30.468Z,1.90
2019-01-17T18:14:57.678Z,1.67
2019-01-17T18:17:25.102Z,1.30
2019-01-17T18:19:52.330Z,1.70
2019-01-17T18:22:19.854Z,1.27
2019-01-17T18:24:47.065Z,2.03
2019-01-17T18:27:14.624Z,1.73
2019-01-17T18:29:41.824Z,1.60
2019-01-17T18:32:09.449Z,1.40
2019-01-17T18:34:36.918Z,1.50
2019-01-17T18:37:04.100Z,1.47
2019-01-17T18:39:31.292Z,1.70
2019-01-17T18:41:58.526Z,1.40
2019-01-17T18:44:25.602Z,1.50
2019-01-17T18:46:52.799Z,1.20
2019-01-17T18:49:19.900Z,1.20
2019-01-17T18:51:47.079Z,1.77
2019-01-17T18:54:14.219Z,1.30
2019-01-17T18:56:41.419Z,1.40
2019-01-17T18:59:08.621Z,1.67
2019-01-17T19:01:35.838Z,1.30
2019-01-17T19:04:03.165Z,1.30
2019-01-17T19:06:31.116Z,1.50
2019-01-17T19:08:58.335Z,1.30
2019-01-17T19:11:25.586Z,1.00
2019-01-17T19:13:52.742Z,1.70
2019-01-17T19:16:20.037Z,1.67
2019-01-17T19:18:47.299Z,1.50
2019-01-17T19:21:14.491Z,1.60
2019-01-17T19:23:41.879Z,1.20
2019-01-17T19:26:09.112Z,1.23
2019-01-17T19:28:36.280Z,1.30
2019-01-17T19:31:03.696Z,1.30
2019-01-17T19:33:30.899Z,1.83
2019-01-17T19:35:57.962Z,1.30
2019-01-17T19:38:25.168Z,1.60
2019-01-17T19:40:52.434Z,1.57
2019-01-17T19:43:19.666Z,1.30
2019-01-17T19:45:46.871Z,1.20
2019-01-17T19:48:13.990Z,1.27
2019-01-17T19:50:41.108Z,1.40
2019-01-17T19:53:09.062Z,1.83
2019-01-17T19:55:36.332Z,1.40
2019-01-17T19:58:03.658Z,1.40
2019-01-17T20:00:30.878Z,1.60
2019-01-17T20:02:58.667Z,1.60
2019-01-17T20:05:27.334Z,1.63
2019-01-17T20:07:54.900Z,1.40
2019-01-17T20:10:27.051Z,1.80
2019-01-17T20:12:54.126Z,1.83
2019-01-17T20:15:21.425Z,1.60
2019-01-17T20:17:48.575Z,1.57
2019-01-17T20:20:16.409Z,1.63
2019-01-17T20:22:43.612Z,1.63
2019-01-17T20:25:10.875Z,1.60
2019-01-17T20:27:38.141Z,2.00
2019-01-17T20:30:09.724Z,1.67
2019-01-17T20:32:36.996Z,1.53
2019-01-17T20:35:04.744Z,1.50
2019-01-17T20:37:31.955Z,1.40
2019-01-17T20:39:59.501Z,2.10
2019-01-17T20:42:26.723Z,1.77
2019-01-17T20:44:53.921Z,1.87
2019-01-17T20:47:21.165Z,1.80
2019-01-17T20:49:48.383Z,1.97
2019-01-17T20:52:15.656Z,2.13
2019-01-17T20:54:43.040Z,1.83
2019-01-17T20:57:11.014Z,1.33
2019-01-17T20:59:38.065Z,2.10
2019-01-17T21:02:17.320Z,1.93
2019-01-17T21:04:44.427Z,1.80
2019-01-17T21:07:11.888Z,2.23
2019-01-17T21:09:39.140Z,2.37
2019-01-17T21:12:06.308Z,2.10
2019-01-17T21:14:33.544Z,2.30
2019-01-17T21:17:00.769Z,1.80
2019-01-17T21:19:27.975Z,2.33
2019-01-17T21:21:55.183Z,2.53
2019-01-17T21:24:22.400Z,2.63
2019-01-17T21:26:49.646Z,2.73
2019-01-17T21:29:17.086Z,2.20
2019-01-17T21:31:44.329Z,2.20
2019-01-17T21:34:11.492Z,2.20
2019-01-17T21:36:39.018Z,2.03
2019-01-17T21:39:06.950Z,2.40
2019-01-17T21:41:34.075Z,2.00
2019-01-17T21:44:01.249Z,2.37
2019-01-17T21:46:28.377Z,2.40
2019-01-17T21:48:55.564Z,2.30
2019-01-17T21:51:26.410Z,2.37
2019-01-17T21:53:54.148Z,2.40
2019-01-17T21:56:21.350Z,2.70
2019-01-17T21:58:48.872Z,2.50
2019-01-17T22:01:16.075Z,2.20
2019-01-17T22:03:43.554Z,2.53
2019-01-17T22:06:10.754Z,1.90
2019-01-17T22:08:37.956Z,2.10
2019-01-17T22:11:05.155Z,2.30
2019-01-17T22:13:32.628Z,2.20
2019-01-17T22:15:59.824Z,2.53
2019-01-17T22:18:27.380Z,2.50
2019-01-17T22:20:54.558Z,2.07
2019-01-17T22:23:21.682Z,3.00
2019-01-17T22:25:48.907Z,2.13
2019-01-17T22:28:16.554Z,2.20
2019-01-17T22:30:43.775Z,2.40
2019-01-17T22:33:10.843Z,2.00
2019-01-17T22:35:37.933Z,1.83
2019-01-17T22:38:05.162Z,2.30
2019-01-17T22:40:32.353Z,2.20
2019-01-17T22:42:59.528Z,2.93
2019-01-17T22:45:28.747Z,2.10
2019-01-17T22:47:55.845Z,2.23
2019-01-17T22:50:23.037Z,2.20
2019-01-17T22:52:50.285Z,1.97
2019-01-17T22:55:17.497Z,2.00
2019-01-17T22:57:44.991Z,1.70
2019-01-17T23:00:54.185Z,2.23
2019-01-17T23:03:39.368Z,2.20
2019-01-17T23:06:06.602Z,2.10
2019-01-17T23:08:33.777Z,1.73
2019-01-17T23:11:01.276Z,1.60
2019-01-17T23:13:28.502Z,1.67
2019-01-17T23:15:55.722Z,1.77
2019-01-17T23:18:23.227Z,1.40
2019-01-17T23:20:50.659Z,1.80
2019-01-17T23:23:17.827Z,1.77
2019-01-17T23:25:44.949Z,1.60
2019-01-17T23:28:12.135Z,1.60
2019-01-17T23:30:39.355Z,2.13
2019-01-17T23:33:06.520Z,1.57
2019-01-17T23:35:33.886Z,1.80
2019-01-17T23:38:01.072Z,1.50
2019-01-17T23:40:28.280Z,1.90
2019-01-17T23:42:55.521Z,1.47
2019-01-17T23:45:22.955Z,2.40
2019-01-17T23:47:50.037Z,2.00
2019-01-17T23:50:17.226Z,2.17
2019-01-17T23:52:44.426Z,2.33
2019-01-17T23:55:11.590Z,2.10
2019-01-17T23:57:38.808Z,2.20
